Waco, TX

11:15 PM CDT on August 28, 2015 (GMT -0500)
Greenleaf Peninsula | | Change Station
CLOSE
Current Station
Personal Weather Station
Location: Waco, TX
Elevation: 580 ft
Nearby Weather Stations

Elev 580 ft 31.56 °N, 97.20 °W | Updated 35 seconds ago

Clear
Clear
84.0 °F
Feels Like 85 °F
N
3.0
Wind Variable Wind from East
Gusts 8.0 mph

Today
High -- | Low -- °F
--% Chance of Precip.
Yesterday
High -- | Low -- °F
Precip. -- in
7:01 AM 7:57 PM
Waxing Gibbous, 99% visible
Pressure 29.96 in
Visibility 10.0 miles
Clouds Clear
Heat Index 85 °F
Dew Point 63 °F
Humidity 49%
Rainfall 0.00 in
Snow Depth Not available.
UV 0 out of 12
Pollen 7.50 out of 12
Air Quality Not available.
Flu Activity Not available.
METAR KACT 290351Z 17010KT 10SM CLR 29/17 A2998 RMK AO2 SLP143 T02940167
Pressure 29.96 in
Visibility 10.0 miles
Clouds Clear
Heat Index 85 °F
Dew Point 63 °F
Humidity 49%
Rainfall 0.00 in
Snow Depth Not available.
UV 0 out of 12
Pollen 7.50 out of 12
Air Quality Not available.
Flu Activity Not available.
METAR KACT 290351Z 17010KT 10SM CLR 29/17 A2998 RMK AO2 SLP143 T02940167

10-Day Weather Forecast

×

Almanac

Astronomy

Aug. 28, 2015 Rise Set
Actual Time
Civil Twilight
Nautical Twilight
Astronomical Twilight
Moon
Length of Visible Light
Length of Day
Tomorrow will be .
, % of the Moon is Illuminated

Today's Extremes

State Highs State Lows

Community

WunderPhotos

Upload Photos

1,850,611 photos uploaded!

WunderBlogs® & News

Nearby

Air Quality

  Air Quality AQ Index Pollutant
Not available.

Snow Depth

Station Depth Elevation

Earthquake Activity

City Distance Mag. Time & Date
Minimum magnitude displayed is 2.5.

Coastal Water Temperatures

Place Temperature

Stations

Nearby Weather Stations

Station Location Temp. Windchill Dew Point Humidity Wind Precip. Elev Updated Type